Time;durP1;ratioP1;P1;durP2;ratioP2;P2;SDS_P1;SDS_P2;PMS_P1;PMS_P2;Temp;Humidity;BMP_temperature;BMP_pressure;BME280_temperature;BME280_humidity;BME280_pressure;Samples;Min_cycle;Max_cycle;Signal;HPM_P1;HPM_P2
2021/03/17 00:00:44;;;;;;;8.43;7.63;;;;;;;;;;10358071;28;20075;-58
2021/03/17 00:06:01;;;;;;;17.77;12.63;;;;;;;;;;10356512;28;20071;-56
2021/03/17 00:11:17;;;;;;;10.23;8.57;;;;;;;;;;10356034;28;20080;-55
2021/03/17 00:16:47;;;;;;;8.43;7.63;;;;;;;;;;10356250;28;20474;-58
2021/03/17 00:22:03;;;;;;;;;;;;;;;;;;10355652;28;20095;-57
2021/03/17 00:27:19;;;;;;;12.90;7.50;;;;;;;;;;10353131;28;20365;-56
2021/03/17 00:32:35;;;;;;;7.10;6.50;;;;;;;;;;10363885;28;20491;-58
2021/03/17 00:37:51;;;;;;;11.07;7.47;;;;;;;;;;10365803;28;20072;-57
2021/03/17 00:43:08;;;;;;;9.15;7.30;;;;;;;;;;10358993;28;20060;-58
2021/03/17 00:48:24;;;;;;;8.68;5.57;;;;;;;;;;10362619;28;20067;-58
2021/03/17 00:53:28;;;;;;;6.05;5.10;;;;;;;;;;10354922;28;20458;-59
2021/03/17 00:58:31;;;;;;;10.18;7.13;;;;;;;;;;10353011;28;20497;-58
2021/03/17 01:03:29;;;;;;;3.65;3.30;;;;;;;;;;10354756;28;20079;-59
2021/03/17 01:08:26;;;;;;;4.97;4.47;;;;;;;;;;10354865;28;20446;-58
2021/03/17 01:13:24;;;;;;;4.93;4.43;;;;;;;;;;10354490;28;20510;-57
2021/03/17 01:18:22;;;;;;;7.57;4.40;;;;;;;;;;10335886;28;20079;-57
2021/03/17 01:23:19;;;;;;;5.13;4.53;;;;;;;;;;10360077;28;20063;-57
2021/03/17 01:28:16;;;;;;;7.18;4.55;;;;;;;;;;10362223;28;20087;-57
2021/03/17 01:33:14;;;;;;;5.72;4.93;;;;;;;;;;10362372;28;20098;-57
2021/03/17 01:38:13;;;;;;;10.20;6.80;;;;;;;;;;10361560;28;20072;-58
2021/03/17 01:43:10;;;;;;;5.60;4.20;;;;;;;;;;10361561;28;20086;-56
2021/03/17 01:48:09;;;;;;;4.35;3.90;;;;;;;;;;10361055;28;20060;-56
2021/03/17 01:53:07;;;;;;;5.07;4.03;;;;;;;;;;10358478;28;20064;-57
2021/03/17 01:58:06;;;;;;;4.68;4.10;;;;;;;;;;10358532;28;20079;-57
2021/03/17 02:03:03;;;;;;;4.13;3.75;;;;;;;;;;10360399;28;20079;-57
2021/03/17 02:08:03;;;;;;;4.72;3.70;;;;;;;;;;10360500;28;20134;-58
2021/03/17 02:13:04;;;;;;;4.22;3.78;;;;;;;;;;10359894;28;20071;-57
2021/03/17 02:18:06;;;;;;;4.28;3.33;;;;;;;;;;10359969;28;20063;-57
2021/03/17 02:23:07;;;;;;;4.88;3.65;;;;;;;;;;10359593;28;20086;-57
2021/03/17 02:28:09;;;;;;;5.05;4.43;;;;;;;;;;10356976;28;20087;-58
2021/03/17 02:33:27;;;;;;;3.28;2.97;;;;;;;;;;10358611;28;20067;-58
2021/03/17 02:38:25;;;;;;;6.47;4.85;;;;;;;;;;10355528;28;20060;-56
2021/03/17 02:43:25;;;;;;;4.80;3.85;;;;;;;;;;10359157;28;20078;-58
2021/03/17 02:48:24;;;;;;;4.35;3.92;;;;;;;;;;10359195;28;20078;-57
2021/03/17 02:53:23;;;;;;;5.55;3.80;;;;;;;;;;10357667;28;20060;-59
2021/03/17 02:58:21;;;;;;;4.68;3.38;;;;;;;;;;10358862;28;20067;-58
2021/03/17 03:03:19;;;;;;;3.40;3.10;;;;;;;;;;10358238;28;20071;-57
2021/03/17 03:08:17;;;;;;;6.88;5.57;;;;;;;;;;10355712;28;20079;-59
2021/03/17 03:13:15;;;;;;;12.32;9.35;;;;;;;;;;10355156;28;20063;-57
2021/03/17 03:18:14;;;;;;;8.05;7.20;;;;;;;;;;10349629;28;20068;-56
2021/03/17 03:23:11;;;;;;;8.20;6.53;;;;;;;;;;10357587;28;20486;-57
2021/03/17 03:28:13;;;;;;;5.18;4.68;;;;;;;;;;10355323;28;20090;-59
2021/03/17 03:33:11;;;;;;;6.18;5.57;;;;;;;;;;10357239;28;20088;-57
2021/03/17 03:38:10;;;;;;;5.63;4.43;;;;;;;;;;10354997;28;20489;-57
2021/03/17 03:43:08;;;;;;;5.13;3.85;;;;;;;;;;10356595;28;20082;-56
2021/03/17 03:48:06;;;;;;;8.88;7.05;;;;;;;;;;10356576;28;20113;-58
2021/03/17 03:53:08;;;;;;;7.07;5.97;;;;;;;;;;10356715;28;20075;-58
2021/03/17 03:58:07;;;;;;;10.82;7.75;;;;;;;;;;10354130;28;20494;-56
2021/03/17 04:03:07;;;;;;;9.00;6.00;;;;;;;;;;10350685;28;20470;-56
2021/03/17 04:08:07;;;;;;;6.57;5.43;;;;;;;;;;10353069;28;20063;-57
2021/03/17 04:13:06;;;;;;;6.28;5.32;;;;;;;;;;10348006;28;20082;-58
2021/03/17 04:18:07;;;;;;;4.32;3.72;;;;;;;;;;10346363;28;20071;-57
2021/03/17 04:23:05;;;;;;;6.47;4.93;;;;;;;;;;10341617;28;20076;-57
2021/03/17 04:28:04;;;;;;;9.73;5.85;;;;;;;;;;10348553;28;20466;-56
2021/03/17 04:33:02;;;;;;;12.70;8.95;;;;;;;;;;10353637;28;20075;-57
2021/03/17 04:38:00;;;;;;;15.95;11.05;;;;;;;;;;10346509;28;20064;-58
2021/03/17 04:42:58;;;;;;;14.00;9.43;;;;;;;;;;10346303;28;20067;-57
2021/03/17 04:47:56;;;;;;;15.32;8.95;;;;;;;;;;10354461;28;20075;-56
2021/03/17 04:52:54;;;;;;;17.67;12.95;;;;;;;;;;10357064;28;20408;-57
2021/03/17 04:57:52;;;;;;;14.63;9.45;;;;;;;;;;10363317;28;20072;-58
2021/03/17 05:02:52;;;;;;;13.00;11.07;;;;;;;;;;10360852;28;20075;-56
2021/03/17 05:07:51;;;;;;;15.15;10.35;;;;;;;;;;10360012;28;20482;-58
2021/03/17 05:12:49;;;;;;;22.92;14.68;;;;;;;;;;10346728;28;20060;-57
2021/03/17 05:17:49;;;;;;;17.63;12.35;;;;;;;;;;10351359;28;20064;-56
2021/03/17 05:22:48;;;;;;;9.43;6.75;;;;;;;;;;10338225;28;20068;-54
2021/03/17 05:27:46;;;;;;;12.25;9.57;;;;;;;;;;10352387;28;20087;-55
2021/03/17 05:32:45;;;;;;;6.90;5.28;;;;;;;;;;10356270;28;20528;-57
2021/03/17 05:37:45;;;;;;;10.00;6.45;;;;;;;;;;10359062;28;20072;-56
2021/03/17 05:42:43;;;;;;;21.88;12.45;;;;;;;;;;10362057;28;20068;-57
2021/03/17 05:47:43;;;;;;;7.30;6.00;;;;;;;;;;10361178;28;20082;-58
2021/03/17 05:52:43;;;;;;;10.88;7.50;;;;;;;;;;10358090;28;20064;-57
2021/03/17 05:57:42;;;;;;;9.95;8.25;;;;;;;;;;10356850;28;20075;-59
2021/03/17 06:02:40;;;;;;;7.25;6.57;;;;;;;;;;10354903;28;20078;-56
2021/03/17 06:07:41;;;;;;;6.10;5.50;;;;;;;;;;10357262;28;20082;-56
2021/03/17 06:12:39;;;;;;;10.50;8.25;;;;;;;;;;10358037;28;20080;-58
2021/03/17 06:17:39;;;;;;;28.80;17.05;;;;;;;;;;10357759;28;20078;-58
2021/03/17 06:22:37;;;;;;;12.57;10.23;;;;;;;;;;10359648;28;20485;-56
2021/03/17 06:27:35;;;;;;;7.00;5.60;;;;;;;;;;10358979;28;20064;-58
2021/03/17 06:32:35;;;;;;;7.03;6.32;;;;;;;;;;10359201;28;20064;-57
2021/03/17 06:37:35;;;;;;;7.65;5.82;;;;;;;;;;10359665;28;20074;-57
2021/03/17 06:42:39;;;;;;;19.00;10.15;;;;;;;;;;10359182;28;20040;-58
2021/03/17 06:47:38;;;;;;;6.50;4.63;;;;;;;;;;10358516;28;20490;-56
2021/03/17 06:52:35;;;;;;;21.98;10.50;;;;;;;;;;10358503;28;20075;-57
2021/03/17 06:57:33;;;;;;;12.18;7.63;;;;;;;;;;10358971;28;20474;-58
2021/03/17 07:02:30;;;;;;;13.77;9.77;;;;;;;;;;10356812;28;20068;-55
2021/03/17 07:07:28;;;;;;;14.65;11.75;;;;;;;;;;10357813;28;20078;-57
2021/03/17 07:12:31;;;;;;;6.57;5.50;;;;;;;;;;10355198;28;20067;-57
2021/03/17 07:17:30;;;;;;;8.98;7.90;;;;;;;;;;10355969;28;20059;-57
2021/03/17 07:22:27;;;;;;;14.48;9.88;;;;;;;;;;10355103;28;20068;-58
2021/03/17 07:27:26;;;;;;;12.10;8.27;;;;;;;;;;10354713;28;20493;-59
2021/03/17 07:32:24;;;;;;;15.65;8.65;;;;;;;;;;10357009;28;20071;-58
2021/03/17 07:37:24;;;;;;;13.68;7.18;;;;;;;;;;10357567;28;20086;-58
2021/03/17 07:42:23;;;;;;;27.52;16.67;;;;;;;;;;10356458;28;20481;-57
2021/03/17 07:47:21;;;;;;;25.70;18.83;;;;;;;;;;10356319;28;20075;-57
2021/03/17 07:52:20;;;;;;;7.55;6.03;;;;;;;;;;10356001;28;20063;-58
2021/03/17 07:57:18;;;;;;;12.88;8.20;;;;;;;;;;10355938;28;20087;-58
2021/03/17 08:02:21;;;;;;;37.63;26.85;;;;;;;;;;10356154;28;20436;-58
2021/03/17 08:07:19;;;;;;;22.05;15.82;;;;;;;;;;10355361;28;20430;-57
2021/03/17 08:12:16;;;;;;;13.20;10.13;;;;;;;;;;10355642;28;20067;-57
2021/03/17 08:17:30;;;;;;;9.20;6.93;;;;;;;;;;10353462;28;20508;-56
2021/03/17 08:22:36;;;;;;;13.40;11.60;;;;;;;;;;10355189;28;20438;-57
2021/03/17 08:27:37;;;;;;;11.05;9.25;;;;;;;;;;10352016;28;20457;-55
2021/03/17 08:32:49;;;;;;;12.63;8.18;;;;;;;;;;10352546;28;20063;-58
2021/03/17 08:37:49;;;;;;;14.85;9.68;;;;;;;;;;10353149;28;20075;-56
2021/03/17 08:42:46;;;;;;;17.73;10.98;;;;;;;;;;10354812;28;20067;-57
2021/03/17 08:47:45;;;;;;;21.27;14.20;;;;;;;;;;10355247;28;20476;-57
2021/03/17 08:52:48;;;;;;;18.25;12.13;;;;;;;;;;10354629;28;20067;-58
2021/03/17 08:58:07;;;;;;;20.02;13.93;;;;;;;;;;10353095;28;20063;-57
2021/03/17 09:03:04;;;;;;;18.58;15.30;;;;;;;;;;10352470;28;20064;-57
2021/03/17 09:08:05;;;;;;;88.18;47.92;;;;;;;;;;10354373;28;20079;-56
2021/03/17 09:13:02;;;;;;;19.50;14.48;;;;;;;;;;10352415;28;20064;-57
2021/03/17 09:18:00;;;;;;;10.35;8.57;;;;;;;;;;10352094;28;20084;-57
2021/03/17 09:23:02;;;;;;;16.50;12.75;;;;;;;;;;10353689;28;20075;-57
2021/03/17 09:28:04;;;;;;;9.40;6.65;;;;;;;;;;10353652;28;20087;-57
2021/03/17 09:33:13;;;;;;;10.00;8.25;;;;;;;;;;10351463;28;20072;-59
2021/03/17 09:38:12;;;;;;;14.98;11.43;;;;;;;;;;10352578;28;20094;-57
2021/03/17 09:43:23;;;;;;;11.88;9.93;;;;;;;;;;10361254;28;20732;-58
2021/03/17 09:48:20;;;;;;;17.50;11.30;;;;;;;;;;10361350;28;20087;-58
2021/03/17 09:53:19;;;;;;;12.20;8.18;;;;;;;;;;10360818;28;20076;-59
2021/03/17 09:58:16;;;;;;;11.50;7.75;;;;;;;;;;10361276;28;20167;-56
2021/03/17 10:03:14;;;;;;;16.13;8.90;;;;;;;;;;10360404;28;20068;-57
2021/03/17 10:08:15;;;;;;;22.80;10.77;;;;;;;;;;10360427;28;20088;-58
2021/03/17 10:13:14;;;;;;;26.13;17.13;;;;;;;;;;10359942;28;20450;-57
2021/03/17 10:18:15;;;;;;;20.88;14.38;;;;;;;;;;10358599;28;20079;-57
2021/03/17 10:23:13;;;;;;;13.20;8.93;;;;;;;;;;10358216;28;20087;-55
2021/03/17 10:28:11;;;;;;;17.38;13.40;;;;;;;;;;10357242;28;20075;-53
2021/03/17 10:33:09;;;;;;;11.80;9.63;;;;;;;;;;10359170;28;20071;-56
2021/03/17 10:38:08;;;;;;;9.40;7.18;;;;;;;;;;10357612;28;20456;-57
2021/03/17 10:43:07;;;;;;;12.38;9.75;;;;;;;;;;10359200;28;20521;-56
2021/03/17 10:48:10;;;;;;;34.35;28.67;;;;;;;;;;10358637;28;20075;-55
2021/03/17 10:53:16;;;;;;;17.73;16.00;;;;;;;;;;10358379;28;20072;-57
2021/03/17 10:58:14;;;;;;;7.70;6.90;;;;;;;;;;10355700;28;20659;-57
2021/03/17 11:03:22;;;;;;;9.98;6.25;;;;;;;;;;10358679;28;20498;-57
2021/03/17 11:08:20;;;;;;;7.13;6.43;;;;;;;;;;10355869;28;20075;-56
2021/03/17 11:13:37;;;;;;;8.77;7.70;;;;;;;;;;10356018;28;20083;-57
2021/03/17 11:18:35;;;;;;;9.70;7.30;;;;;;;;;;10354900;28;20067;-56
2021/03/17 11:23:35;;;;;;;18.35;11.05;;;;;;;;;;10357394;28;20544;-57
2021/03/17 11:28:37;;;;;;;8.82;7.53;;;;;;;;;;10356700;28;20458;-57
2021/03/17 11:33:35;;;;;;;16.10;10.52;;;;;;;;;;10356554;28;20725;-57
2021/03/17 11:38:34;;;;;;;20.15;14.13;;;;;;;;;;10357160;28;20477;-57
2021/03/17 11:43:32;;;;;;;9.60;8.40;;;;;;;;;;10357353;28;20075;-57
2021/03/17 11:48:30;;;;;;;13.88;10.40;;;;;;;;;;10355993;28;20062;-57
2021/03/17 11:53:28;;;;;;;16.80;12.13;;;;;;;;;;10356510;28;20082;-57
2021/03/17 11:58:26;;;;;;;24.27;16.42;;;;;;;;;;10356160;28;21406;-57
2021/03/17 12:03:24;;;;;;;24.85;14.50;;;;;;;;;;10353260;28;20068;-56
2021/03/17 12:08:21;;;;;;;31.25;19.65;;;;;;;;;;10356040;28;20068;-56
2021/03/17 12:13:19;;;;;;;24.60;14.82;;;;;;;;;;10355741;28;20044;-57
2021/03/17 12:18:17;;;;;;;11.10;8.55;;;;;;;;;;10355595;28;20048;-57
2021/03/17 12:23:15;;;;;;;20.90;14.68;;;;;;;;;;10355432;28;20126;-58
2021/03/17 12:28:13;;;;;;;20.38;14.85;;;;;;;;;;10354973;28;20075;-57
2021/03/17 12:33:10;;;;;;;17.42;10.65;;;;;;;;;;10355124;28;20090;-58
2021/03/17 12:38:09;;;;;;;25.88;13.40;;;;;;;;;;10355552;28;20131;-57
2021/03/17 12:43:06;;;;;;;27.05;13.38;;;;;;;;;;10352789;28;20080;-56
2021/03/17 12:48:13;;;;;;;12.13;10.20;;;;;;;;;;10353504;28;20079;-58
2021/03/17 12:53:11;;;;;;;10.70;8.65;;;;;;;;;;10354779;28;20075;-56
2021/03/17 12:58:08;;;;;;;30.15;19.58;;;;;;;;;;10352087;28;20063;-56
2021/03/17 13:03:06;;;;;;;48.72;30.58;;;;;;;;;;10355071;28;20072;-57
2021/03/17 13:08:03;;;;;;;24.67;14.98;;;;;;;;;;10354488;28;20072;-57
2021/03/17 13:13:03;;;;;;;48.47;29.33;;;;;;;;;;10356232;28;20063;-55
2021/03/17 13:18:00;;;;;;;17.98;13.52;;;;;;;;;;10362225;28;20060;-57
2021/03/17 13:22:57;;;;;;;16.27;11.10;;;;;;;;;;10361983;28;20464;-57
2021/03/17 13:27:56;;;;;;;24.33;14.80;;;;;;;;;;10362145;28;20086;-56
2021/03/17 13:32:54;;;;;;;13.73;8.40;;;;;;;;;;10359825;28;20064;-57
2021/03/17 13:37:51;;;;;;;75.03;38.75;;;;;;;;;;10359334;28;20078;-56
2021/03/17 13:42:49;;;;;;;43.03;25.20;;;;;;;;;;10361209;28;20502;-55
2021/03/17 13:47:46;;;;;;;25.52;14.32;;;;;;;;;;10360986;28;20303;-56
2021/03/17 13:52:44;;;;;;;49.70;22.90;;;;;;;;;;10360841;28;20071;-58
2021/03/17 13:57:42;;;;;;;29.65;19.30;;;;;;;;;;10360839;28;20457;-59
2021/03/17 14:02:39;;;;;;;13.25;9.73;;;;;;;;;;10360974;28;20071;-58
2021/03/17 14:07:37;;;;;;;22.80;15.23;;;;;;;;;;10357563;28;20493;-58
2021/03/17 14:12:36;;;;;;;21.33;15.88;;;;;;;;;;10360275;28;20071;-56
2021/03/17 14:17:33;;;;;;;42.90;22.52;;;;;;;;;;10360157;28;20063;-58
2021/03/17 14:22:31;;;;;;;18.40;13.77;;;;;;;;;;10360463;28;20078;-57
2021/03/17 14:27:28;;;;;;;29.85;18.23;;;;;;;;;;10358348;28;20169;-57
2021/03/17 14:32:27;;;;;;;40.50;23.92;;;;;;;;;;10359389;28;20532;-58
2021/03/17 14:37:25;;;;;;;42.90;22.73;;;;;;;;;;10359230;28;20106;-58
2021/03/17 14:42:22;;;;;;;25.63;15.30;;;;;;;;;;10356771;28;20071;-57
2021/03/17 14:47:20;;;;;;;26.00;16.50;;;;;;;;;;10358583;28;20426;-57
2021/03/17 14:52:18;;;;;;;87.07;42.38;;;;;;;;;;10357187;28;20504;-58
2021/03/17 14:57:35;;;;;;;143.07;56.05;;;;;;;;;;10357471;28;20528;-58
2021/03/17 15:02:34;;;;;;;62.17;30.13;;;;;;;;;;10358125;28;20063;-58
2021/03/17 15:07:32;;;;;;;76.65;45.28;;;;;;;;;;10357885;28;20074;-58
2021/03/17 15:12:31;;;;;;;93.47;53.95;;;;;;;;;;10356635;28;20528;-58
2021/03/17 15:17:28;;;;;;;64.68;34.53;;;;;;;;;;10357851;28;20071;-57
2021/03/17 15:22:31;;;;;;;42.53;29.90;;;;;;;;;;10355843;28;20044;-58
2021/03/17 15:27:30;;;;;;;4.88;4.03;;;;;;;;;;10354291;28;20117;-58
2021/03/17 15:32:28;;;;;;;20.92;14.20;;;;;;;;;;10345221;28;20086;-56
2021/03/17 15:37:25;;;;;;;19.45;15.15;;;;;;;;;;10340481;28;20070;-57
2021/03/17 15:42:23;;;;;;;7.63;6.80;;;;;;;;;;10348499;28;20072;-57
2021/03/17 15:47:21;;;;;;;7.00;6.32;;;;;;;;;;10338759;28;20079;-57
2021/03/17 15:52:18;;;;;;;8.80;7.88;;;;;;;;;;10349453;28;20047;-58
2021/03/17 15:57:16;;;;;;;19.33;13.35;;;;;;;;;;10354278;28;20068;-58
2021/03/17 16:02:13;;;;;;;10.88;8.38;;;;;;;;;;10355589;28;20472;-55
2021/03/17 16:07:12;;;;;;;10.32;7.93;;;;;;;;;;10346235;28;20508;-58
2021/03/17 16:12:09;;;;;;;12.82;10.60;;;;;;;;;;10343503;28;20529;-58
2021/03/17 16:17:06;;;;;;;17.60;10.75;;;;;;;;;;10345977;28;20528;-57
2021/03/17 16:22:05;;;;;;;10.35;7.40;;;;;;;;;;10353881;28;20067;-58
2021/03/17 16:27:03;;;;;;;14.68;12.60;;;;;;;;;;10355063;28;20078;-58
2021/03/17 16:32:01;;;;;;;9.32;6.10;;;;;;;;;;10350833;28;20079;-56
2021/03/17 16:36:58;;;;;;;13.32;8.95;;;;;;;;;;10344584;28;20068;-55
2021/03/17 16:41:56;;;;;;;11.27;8.05;;;;;;;;;;10350473;28;20094;-56
2021/03/17 16:46:54;;;;;;;22.13;16.17;;;;;;;;;;10353849;28;20075;-56
2021/03/17 16:51:51;;;;;;;17.35;9.57;;;;;;;;;;10362209;28;20071;-55
2021/03/17 16:56:49;;;;;;;10.63;8.00;;;;;;;;;;10361939;28;20072;-53
2021/03/17 17:01:46;;;;;;;11.15;8.20;;;;;;;;;;10359571;28;20064;-53
2021/03/17 17:06:44;;;;;;;18.27;13.18;;;;;;;;;;10354874;28;20185;-57
2021/03/17 17:11:41;;;;;;;25.80;16.67;;;;;;;;;;10359296;28;20513;-55
2021/03/17 17:16:39;;;;;;;13.77;11.00;;;;;;;;;;10362250;28;20063;-56
2021/03/17 17:21:36;;;;;;;8.38;7.30;;;;;;;;;;10362390;28;20072;-56
2021/03/17 17:26:34;;;;;;;15.55;11.07;;;;;;;;;;10361859;28;20079;-56
2021/03/17 17:31:32;;;;;;;10.38;8.13;;;;;;;;;;10354027;28;20094;-55
2021/03/17 17:36:30;;;;;;;18.48;12.57;;;;;;;;;;10357263;28;20060;-56
2021/03/17 17:41:27;;;;;;;12.13;9.65;;;;;;;;;;10360474;28;20703;-55
2021/03/17 17:46:26;;;;;;;32.83;18.58;;;;;;;;;;10355276;28;20154;-57
2021/03/17 17:51:23;;;;;;;10.95;7.18;;;;;;;;;;10359145;28;20460;-57
2021/03/17 17:56:21;;;;;;;11.00;8.93;;;;;;;;;;10360304;28;20060;-56
2021/03/17 18:01:18;;;;;;;26.85;14.75;;;;;;;;;;10352747;28;20062;-56
2021/03/17 18:06:16;;;;;;;21.48;12.25;;;;;;;;;;10358950;28;20063;-56
2021/03/17 18:11:13;;;;;;;12.98;7.80;;;;;;;;;;10356662;28;20075;-57
2021/03/17 18:16:11;;;;;;;26.98;15.00;;;;;;;;;;10360203;28;20078;-56
2021/03/17 18:21:08;;;;;;;24.73;17.42;;;;;;;;;;10353841;28;20074;-57
2021/03/17 18:26:06;;;;;;;14.18;10.75;;;;;;;;;;10359476;28;20071;-57
2021/03/17 18:31:04;;;;;;;31.85;22.50;;;;;;;;;;10355851;28;20532;-57
2021/03/17 18:36:01;;;;;;;9.38;7.50;;;;;;;;;;10353225;28;20083;-56
2021/03/17 18:40:58;;;;;;;10.85;9.65;;;;;;;;;;10351879;28;20543;-56
2021/03/17 18:45:57;;;;;;;17.27;12.95;;;;;;;;;;10355307;28;20084;-56
2021/03/17 18:50:54;;;;;;;13.02;10.48;;;;;;;;;;10356130;28;20075;-56
2021/03/17 18:55:53;;;;;;;9.35;7.70;;;;;;;;;;10356001;28;20075;-56
2021/03/17 19:01:06;;;;;;;14.32;10.95;;;;;;;;;;10350430;28;20549;-56
2021/03/17 19:06:03;;;;;;;16.85;12.32;;;;;;;;;;10356117;28;20433;-57
2021/03/17 19:11:01;;;;;;;32.58;20.70;;;;;;;;;;10357359;28;20064;-56
2021/03/17 19:15:59;;;;;;;20.88;12.65;;;;;;;;;;10351373;28;20078;-58
2021/03/17 19:20:58;;;;;;;20.60;14.77;;;;;;;;;;10350615;28;20080;-57
2021/03/17 19:25:58;;;;;;;11.77;8.73;;;;;;;;;;10350249;28;20083;-57
2021/03/17 19:31:12;;;;;;;75.15;33.90;;;;;;;;;;10351350;28;20084;-56
2021/03/17 19:36:13;;;;;;;20.48;13.02;;;;;;;;;;10355947;28;20068;-59
2021/03/17 19:41:12;;;;;;;23.23;14.30;;;;;;;;;;10354987;28;20103;-58
2021/03/17 19:46:11;;;;;;;15.88;11.75;;;;;;;;;;10353681;28;20477;-57
2021/03/17 19:51:08;;;;;;;23.40;16.92;;;;;;;;;;10356114;28;20478;-58
2021/03/17 19:56:30;;;;;;;16.23;13.50;;;;;;;;;;10349687;28;20090;-58
2021/03/17 20:01:46;;;;;;;10.40;8.43;;;;;;;;;;10354903;28;20067;-56
2021/03/17 20:07:07;;;;;;;14.38;9.60;;;;;;;;;;10342064;28;20155;-53
2021/03/17 20:12:07;;;;;;;10.75;7.03;;;;;;;;;;10338561;28;20081;-56
2021/03/17 20:17:09;;;;;;;22.90;13.20;;;;;;;;;;10336851;28;21347;-55
2021/03/17 20:22:07;;;;;;;16.73;10.55;;;;;;;;;;10342131;28;20071;-53
2021/03/17 20:27:09;;;;;;;13.52;9.80;;;;;;;;;;10342464;28;20110;-56
2021/03/17 20:32:07;;;;;;;10.88;8.07;;;;;;;;;;10353364;28;20048;-56
2021/03/17 20:37:08;;;;;;;47.85;25.75;;;;;;;;;;10347188;28;20488;-57
2021/03/17 20:42:11;;;;;;;371.00;203.13;;;;;;;;;;10341736;28;20064;-55
2021/03/17 20:47:09;;;;;;;24.58;15.10;;;;;;;;;;10350529;28;20086;-57
2021/03/17 20:52:07;;;;;;;19.80;11.57;;;;;;;;;;10344743;28;20481;-58
2021/03/17 20:57:05;;;;;;;31.98;20.23;;;;;;;;;;10342020;28;20087;-57
2021/03/17 21:02:06;;;;;;;18.13;16.23;;;;;;;;;;10342261;28;20078;-57
2021/03/17 21:07:05;;;;;;;27.10;22.77;;;;;;;;;;10350251;28;20091;-58
2021/03/17 21:12:07;;;;;;;13.98;11.00;;;;;;;;;;10352663;28;20516;-58
2021/03/17 21:17:38;;;;;;;9.80;8.90;;;;;;;;;;10342475;28;20072;-56
2021/03/17 21:22:37;;;;;;;10.77;7.55;;;;;;;;;;10343899;28;20075;-56
2021/03/17 21:27:35;;;;;;;15.85;10.10;;;;;;;;;;10349511;28;20071;-58
2021/03/17 21:32:41;;;;;;;15.65;10.00;;;;;;;;;;10342259;28;20087;-56
2021/03/17 21:37:49;;;;;;;14.23;10.85;;;;;;;;;;10355763;28;20040;-55
2021/03/17 21:42:48;;;;;;;9.75;8.85;;;;;;;;;;10356260;28;20071;-56
2021/03/17 21:47:46;;;;;;;13.25;10.73;;;;;;;;;;10355655;28;20072;-57
2021/03/17 21:52:44;;;;;;;37.30;24.33;;;;;;;;;;10359554;28;20059;-56
2021/03/17 21:57:42;;;;;;;47.25;27.60;;;;;;;;;;10356190;28;20208;-56
2021/03/17 22:02:43;;;;;;;30.00;18.75;;;;;;;;;;10359388;28;20072;-56
2021/03/17 22:07:41;;;;;;;6.97;6.03;;;;;;;;;;10353960;28;20083;-57
2021/03/17 22:12:39;;;;;;;5.93;4.60;;;;;;;;;;10353207;28;20060;-57
2021/03/17 22:17:36;;;;;;;11.05;9.13;;;;;;;;;;10359838;28;20095;-58
2021/03/17 22:22:34;;;;;;;23.50;14.30;;;;;;;;;;10357741;28;20074;-56
2021/03/17 22:27:33;;;;;;;10.55;7.15;;;;;;;;;;10356176;28;20079;-58
2021/03/17 22:32:31;;;;;;;19.48;13.75;;;;;;;;;;10359512;28;20354;-56
2021/03/17 22:37:29;;;;;;;11.60;7.63;;;;;;;;;;10359150;28;20067;-58
2021/03/17 22:42:26;;;;;;;11.50;7.65;;;;;;;;;;10358693;28;20079;-58
2021/03/17 22:47:25;;;;;;;5.93;5.00;;;;;;;;;;10352445;28;20079;-57
2021/03/17 22:52:22;;;;;;;7.45;4.50;;;;;;;;;;10352914;28;20066;-56
2021/03/17 22:57:20;;;;;;;5.93;5.03;;;;;;;;;;10353123;28;20080;-57
2021/03/17 23:02:17;;;;;;;5.50;4.93;;;;;;;;;;10352055;28;20075;-56
2021/03/17 23:07:16;;;;;;;32.78;17.38;;;;;;;;;;10353146;28;20076;-58
2021/03/17 23:12:14;;;;;;;4.30;3.53;;;;;;;;;;10356732;28;20097;-53
2021/03/17 23:17:14;;;;;;;7.28;6.22;;;;;;;;;;10351336;28;20071;-57
2021/03/17 23:22:12;;;;;;;22.70;10.35;;;;;;;;;;10357976;28;20076;-56
2021/03/17 23:27:12;;;;;;;161.15;89.75;;;;;;;;;;10357434;28;20527;-58
2021/03/17 23:32:09;;;;;;;10.55;5.57;;;;;;;;;;10357427;28;20548;-57
2021/03/17 23:37:07;;;;;;;8.95;5.30;;;;;;;;;;10356890;28;20076;-57
2021/03/17 23:42:09;;;;;;;19.90;8.35;;;;;;;;;;10353389;28;20074;-57
2021/03/17 23:47:07;;;;;;;17.42;7.65;;;;;;;;;;10353883;28;20064;-58
2021/03/17 23:52:07;;;;;;;15.45;5.88;;;;;;;;;;10346507;28;20063;-58
2021/03/17 23:57:04;;;;;;;15.75;7.07;;;;;;;;;;10352414;28;20059;-58
